Junction, Texas
Current Conditions -  °F | °C
As of 2:51 AM on Wednesday 22 Oct 2014 (Local Time) from KJCT Reporting Station
Clear Clear  
Wind Chill: 20°   Ceiling: Unl
Heat Index: 20°   Visibility: 10mi
Dew Point:   Wind: 6mph
Humidity: 47%   Direction: 100°E
Pressure: 30.07"   Gusts: NA
Location:  30.49°N, 99.77°W
Report Text: KJCT 220751Z AUTO 10005KT 10SM CLR 20/08 A3007 RMK AO2 SLP148 T02000083
Loading
Personal Weather Stations






























Interactive Weather Map
Tropical Storm Tracking
New forecast layout! Learn more

10-Day Weather Forecast

Advertisements
Track Severe Weather on mobile